sensor_id;sensor_type;location;lat;lon;timestamp;P1;durP1;ratioP1;P2;durP2;ratioP2
66741;SDS011;53654;54.152;19.432;2024-02-16T00:01:37;58.60;;;53.10;;
66741;SDS011;53654;54.152;19.432;2024-02-16T00:04:05;58.10;;;52.60;;
66741;SDS011;53654;54.152;19.432;2024-02-16T00:06:35;58.70;;;53.20;;
66741;SDS011;53654;54.152;19.432;2024-02-16T00:09:04;59.60;;;53.60;;
66741;SDS011;53654;54.152;19.432;2024-02-16T00:11:32;59.80;;;54.00;;
66741;SDS011;53654;54.152;19.432;2024-02-16T00:14:00;59.70;;;53.80;;
66741;SDS011;53654;54.152;19.432;2024-02-16T00:16:29;58.70;;;52.80;;
66741;SDS011;53654;54.152;19.432;2024-02-16T00:18:57;58.50;;;52.80;;
66741;SDS011;53654;54.152;19.432;2024-02-16T00:21:25;59.40;;;53.40;;
66741;SDS011;53654;54.152;19.432;2024-02-16T00:23:55;58.60;;;52.80;;
66741;SDS011;53654;54.152;19.432;2024-02-16T00:26:23;60.10;;;54.30;;
66741;SDS011;53654;54.152;19.432;2024-02-16T00:28:52;59.30;;;53.40;;
66741;SDS011;53654;54.152;19.432;2024-02-16T00:31:20;57.70;;;52.10;;
66741;SDS011;53654;54.152;19.432;2024-02-16T00:33:48;57.70;;;52.10;;
66741;SDS011;53654;54.152;19.432;2024-02-16T00:36:17;58.60;;;52.80;;
66741;SDS011;53654;54.152;19.432;2024-02-16T00:38:45;58.30;;;52.40;;
66741;SDS011;53654;54.152;19.432;2024-02-16T00:41:21;59.40;;;53.50;;
66741;SDS011;53654;54.152;19.432;2024-02-16T00:43:50;60.40;;;54.40;;
66741;SDS011;53654;54.152;19.432;2024-02-16T00:46:20;59.80;;;53.70;;
66741;SDS011;53654;54.152;19.432;2024-02-16T00:48:51;61.80;;;55.50;;
66741;SDS011;53654;54.152;19.432;2024-02-16T00:51:20;60.10;;;54.00;;
66741;SDS011;53654;54.152;19.432;2024-02-16T00:53:49;60.40;;;54.30;;
66741;SDS011;53654;54.152;19.432;2024-02-16T00:56:17;58.20;;;52.30;;
66741;SDS011;53654;54.152;19.432;2024-02-16T00:58:45;57.20;;;51.50;;
66741;SDS011;53654;54.152;19.432;2024-02-16T01:01:14;58.30;;;52.40;;
66741;SDS011;53654;54.152;19.432;2024-02-16T01:03:42;58.60;;;52.80;;
66741;SDS011;53654;54.152;19.432;2024-02-16T01:06:11;59.10;;;53.10;;
66741;SDS011;53654;54.152;19.432;2024-02-16T01:08:40;58.50;;;52.50;;
66741;SDS011;53654;54.152;19.432;2024-02-16T01:11:08;57.50;;;51.70;;
66741;SDS011;53654;54.152;19.432;2024-02-16T01:13:36;57.30;;;51.50;;
66741;SDS011;53654;54.152;19.432;2024-02-16T01:16:05;57.40;;;51.60;;
66741;SDS011;53654;54.152;19.432;2024-02-16T01:18:34;55.30;;;49.60;;
66741;SDS011;53654;54.152;19.432;2024-02-16T01:21:04;54.80;;;49.20;;
66741;SDS011;53654;54.152;19.432;2024-02-16T01:23:32;55.00;;;49.60;;
66741;SDS011;53654;54.152;19.432;2024-02-16T01:26:01;55.20;;;49.70;;
66741;SDS011;53654;54.152;19.432;2024-02-16T01:28:29;52.40;;;47.20;;
66741;SDS011;53654;54.152;19.432;2024-02-16T01:30:57;53.80;;;48.30;;
66741;SDS011;53654;54.152;19.432;2024-02-16T01:33:26;53.70;;;48.40;;
66741;SDS011;53654;54.152;19.432;2024-02-16T01:35:54;53.00;;;47.70;;
66741;SDS011;53654;54.152;19.432;2024-02-16T01:38:24;52.10;;;46.80;;
66741;SDS011;53654;54.152;19.432;2024-02-16T01:40:52;51.80;;;46.70;;
66741;SDS011;53654;54.152;19.432;2024-02-16T01:43:20;51.70;;;46.50;;
66741;SDS011;53654;54.152;19.432;2024-02-16T01:45:49;51.50;;;46.30;;
66741;SDS011;53654;54.152;19.432;2024-02-16T01:48:17;51.40;;;46.40;;
66741;SDS011;53654;54.152;19.432;2024-02-16T01:50:47;51.40;;;46.20;;
66741;SDS011;53654;54.152;19.432;2024-02-16T01:53:17;51.30;;;46.10;;
66741;SDS011;53654;54.152;19.432;2024-02-16T01:55:46;51.70;;;46.60;;
66741;SDS011;53654;54.152;19.432;2024-02-16T01:58:15;50.50;;;45.60;;
66741;SDS011;53654;54.152;19.432;2024-02-16T02:00:43;51.40;;;46.30;;
66741;SDS011;53654;54.152;19.432;2024-02-16T02:03:11;51.70;;;46.70;;
66741;SDS011;53654;54.152;19.432;2024-02-16T02:05:44;50.90;;;45.70;;
66741;SDS011;53654;54.152;19.432;2024-02-16T02:08:16;50.10;;;45.20;;
66741;SDS011;53654;54.152;19.432;2024-02-16T02:10:44;50.00;;;45.20;;
66741;SDS011;53654;54.152;19.432;2024-02-16T02:13:13;49.90;;;45.10;;
66741;SDS011;53654;54.152;19.432;2024-02-16T02:15:42;48.10;;;43.60;;
66741;SDS011;53654;54.152;19.432;2024-02-16T02:18:11;49.20;;;44.50;;
66741;SDS011;53654;54.152;19.432;2024-02-16T02:20:39;48.00;;;43.50;;
66741;SDS011;53654;54.152;19.432;2024-02-16T02:23:08;48.00;;;43.60;;
66741;SDS011;53654;54.152;19.432;2024-02-16T02:25:36;47.00;;;42.60;;
66741;SDS011;53654;54.152;19.432;2024-02-16T02:28:04;46.60;;;42.20;;
66741;SDS011;53654;54.152;19.432;2024-02-16T02:30:33;46.60;;;42.40;;
66741;SDS011;53654;54.152;19.432;2024-02-16T02:33:01;46.70;;;42.30;;
66741;SDS011;53654;54.152;19.432;2024-02-16T02:35:30;45.80;;;41.40;;
66741;SDS011;53654;54.152;19.432;2024-02-16T02:37:58;45.80;;;41.50;;
66741;SDS011;53654;54.152;19.432;2024-02-16T02:40:27;45.40;;;41.30;;
66741;SDS011;53654;54.152;19.432;2024-02-16T02:42:55;46.60;;;42.30;;
66741;SDS011;53654;54.152;19.432;2024-02-16T02:45:23;45.50;;;41.20;;
66741;SDS011;53654;54.152;19.432;2024-02-16T02:47:51;43.50;;;39.50;;
66741;SDS011;53654;54.152;19.432;2024-02-16T02:50:20;43.20;;;39.30;;
66741;SDS011;53654;54.152;19.432;2024-02-16T02:52:48;43.00;;;39.10;;
66741;SDS011;53654;54.152;19.432;2024-02-16T02:55:16;43.10;;;39.20;;
66741;SDS011;53654;54.152;19.432;2024-02-16T02:57:45;42.50;;;38.70;;
66741;SDS011;53654;54.152;19.432;2024-02-16T03:00:13;42.10;;;38.10;;
66741;SDS011;53654;54.152;19.432;2024-02-16T03:02:43;41.20;;;37.50;;
66741;SDS011;53654;54.152;19.432;2024-02-16T03:05:15;40.80;;;37.10;;
66741;SDS011;53654;54.152;19.432;2024-02-16T03:07:43;40.60;;;37.00;;
66741;SDS011;53654;54.152;19.432;2024-02-16T03:10:12;40.70;;;37.00;;
66741;SDS011;53654;54.152;19.432;2024-02-16T03:12:41;40.60;;;37.00;;
66741;SDS011;53654;54.152;19.432;2024-02-16T03:15:09;41.40;;;37.70;;
66741;SDS011;53654;54.152;19.432;2024-02-16T03:17:38;40.60;;;36.80;;
66741;SDS011;53654;54.152;19.432;2024-02-16T03:20:07;40.70;;;37.00;;
66741;SDS011;53654;54.152;19.432;2024-02-16T03:22:35;39.90;;;36.40;;
66741;SDS011;53654;54.152;19.432;2024-02-16T03:25:04;40.50;;;36.90;;
66741;SDS011;53654;54.152;19.432;2024-02-16T03:27:33;40.30;;;36.70;;
66741;SDS011;53654;54.152;19.432;2024-02-16T03:30:02;40.90;;;37.30;;
66741;SDS011;53654;54.152;19.432;2024-02-16T03:32:31;40.40;;;36.70;;
66741;SDS011;53654;54.152;19.432;2024-02-16T03:34:59;40.40;;;36.80;;
66741;SDS011;53654;54.152;19.432;2024-02-16T03:37:28;39.80;;;36.30;;
66741;SDS011;53654;54.152;19.432;2024-02-16T03:39:57;40.80;;;37.20;;
66741;SDS011;53654;54.152;19.432;2024-02-16T03:42:25;39.40;;;35.90;;
66741;SDS011;53654;54.152;19.432;2024-02-16T03:44:54;40.00;;;36.40;;
66741;SDS011;53654;54.152;19.432;2024-02-16T03:47:22;40.40;;;36.80;;
66741;SDS011;53654;54.152;19.432;2024-02-16T03:49:50;41.40;;;37.40;;
66741;SDS011;53654;54.152;19.432;2024-02-16T03:52:19;40.60;;;36.90;;
66741;SDS011;53654;54.152;19.432;2024-02-16T03:54:47;40.70;;;37.00;;
66741;SDS011;53654;54.152;19.432;2024-02-16T03:57:17;41.70;;;37.90;;
66741;SDS011;53654;54.152;19.432;2024-02-16T03:59:45;40.50;;;36.80;;
66741;SDS011;53654;54.152;19.432;2024-02-16T04:02:14;40.70;;;37.00;;
66741;SDS011;53654;54.152;19.432;2024-02-16T04:04:42;40.80;;;37.20;;
66741;SDS011;53654;54.152;19.432;2024-02-16T04:07:10;40.10;;;36.50;;
66741;SDS011;53654;54.152;19.432;2024-02-16T04:09:40;41.50;;;37.60;;
66741;SDS011;53654;54.152;19.432;2024-02-16T04:12:08;41.80;;;38.00;;
66741;SDS011;53654;54.152;19.432;2024-02-16T04:14:37;41.60;;;37.80;;
66741;SDS011;53654;54.152;19.432;2024-02-16T04:17:05;41.00;;;37.30;;
66741;SDS011;53654;54.152;19.432;2024-02-16T04:19:33;42.60;;;38.70;;
66741;SDS011;53654;54.152;19.432;2024-02-16T04:22:01;42.80;;;39.00;;
66741;SDS011;53654;54.152;19.432;2024-02-16T04:24:31;42.40;;;38.50;;
66741;SDS011;53654;54.152;19.432;2024-02-16T04:26:59;42.80;;;38.80;;
66741;SDS011;53654;54.152;19.432;2024-02-16T04:29:28;43.30;;;39.40;;
66741;SDS011;53654;54.152;19.432;2024-02-16T04:31:56;43.20;;;39.30;;
66741;SDS011;53654;54.152;19.432;2024-02-16T04:34:24;44.60;;;40.60;;
66741;SDS011;53654;54.152;19.432;2024-02-16T04:36:52;45.90;;;41.70;;
66741;SDS011;53654;54.152;19.432;2024-02-16T04:39:21;43.60;;;39.60;;
66741;SDS011;53654;54.152;19.432;2024-02-16T04:41:49;44.30;;;40.30;;
66741;SDS011;53654;54.152;19.432;2024-02-16T04:44:19;43.20;;;39.30;;
66741;SDS011;53654;54.152;19.432;2024-02-16T04:46:49;42.50;;;38.60;;
66741;SDS011;53654;54.152;19.432;2024-02-16T04:49:19;43.50;;;39.60;;
66741;SDS011;53654;54.152;19.432;2024-02-16T04:51:49;44.30;;;40.20;;
66741;SDS011;53654;54.152;19.432;2024-02-16T04:54:17;44.50;;;40.50;;
66741;SDS011;53654;54.152;19.432;2024-02-16T04:56:46;44.00;;;40.00;;
66741;SDS011;53654;54.152;19.432;2024-02-16T04:59:14;44.40;;;40.30;;
66741;SDS011;53654;54.152;19.432;2024-02-16T05:01:43;45.90;;;41.70;;
66741;SDS011;53654;54.152;19.432;2024-02-16T05:04:15;44.90;;;40.80;;
66741;SDS011;53654;54.152;19.432;2024-02-16T05:06:45;46.20;;;41.90;;
66741;SDS011;53654;54.152;19.432;2024-02-16T05:09:14;46.20;;;41.90;;
66741;SDS011;53654;54.152;19.432;2024-02-16T05:11:45;47.00;;;42.70;;
66741;SDS011;53654;54.152;19.432;2024-02-16T05:14:13;46.80;;;42.60;;
66741;SDS011;53654;54.152;19.432;2024-02-16T05:16:45;47.30;;;43.00;;
66741;SDS011;53654;54.152;19.432;2024-02-16T05:19:13;48.70;;;44.10;;
66741;SDS011;53654;54.152;19.432;2024-02-16T05:21:42;48.60;;;44.20;;
66741;SDS011;53654;54.152;19.432;2024-02-16T05:24:10;49.40;;;45.00;;
66741;SDS011;53654;54.152;19.432;2024-02-16T05:26:38;48.50;;;44.20;;
66741;SDS011;53654;54.152;19.432;2024-02-16T05:29:06;49.00;;;44.50;;
66741;SDS011;53654;54.152;19.432;2024-02-16T05:31:34;50.50;;;45.80;;
66741;SDS011;53654;54.152;19.432;2024-02-16T05:34:03;54.30;;;49.20;;
66741;SDS011;53654;54.152;19.432;2024-02-16T05:36:31;56.10;;;50.90;;
66741;SDS011;53654;54.152;19.432;2024-02-16T05:39:04;53.60;;;48.40;;
66741;SDS011;53654;54.152;19.432;2024-02-16T05:41:49;54.40;;;49.30;;
66741;SDS011;53654;54.152;19.432;2024-02-16T05:44:17;55.00;;;49.60;;
66741;SDS011;53654;54.152;19.432;2024-02-16T05:46:46;52.50;;;47.50;;
66741;SDS011;53654;54.152;19.432;2024-02-16T05:49:15;48.30;;;43.70;;
66741;SDS011;53654;54.152;19.432;2024-02-16T05:51:47;48.00;;;43.70;;
66741;SDS011;53654;54.152;19.432;2024-02-16T05:54:34;51.80;;;46.90;;
66741;SDS011;53654;54.152;19.432;2024-02-16T05:57:05;50.50;;;45.70;;
66741;SDS011;53654;54.152;19.432;2024-02-16T05:59:37;47.10;;;42.90;;
66741;SDS011;53654;54.152;19.432;2024-02-16T06:02:05;47.10;;;42.80;;
66741;SDS011;53654;54.152;19.432;2024-02-16T06:04:35;46.70;;;42.50;;
66741;SDS011;53654;54.152;19.432;2024-02-16T06:07:03;46.10;;;42.00;;
66741;SDS011;53654;54.152;19.432;2024-02-16T06:09:31;46.80;;;42.50;;
66741;SDS011;53654;54.152;19.432;2024-02-16T06:12:04;46.40;;;42.30;;
66741;SDS011;53654;54.152;19.432;2024-02-16T06:14:33;45.10;;;41.00;;
66741;SDS011;53654;54.152;19.432;2024-02-16T06:17:01;46.40;;;42.10;;
66741;SDS011;53654;54.152;19.432;2024-02-16T06:19:30;46.40;;;42.10;;
66741;SDS011;53654;54.152;19.432;2024-02-16T06:21:58;47.10;;;42.70;;
66741;SDS011;53654;54.152;19.432;2024-02-16T06:24:27;45.50;;;41.30;;
66741;SDS011;53654;54.152;19.432;2024-02-16T06:26:55;44.90;;;40.70;;
66741;SDS011;53654;54.152;19.432;2024-02-16T06:29:24;45.70;;;41.50;;
66741;SDS011;53654;54.152;19.432;2024-02-16T06:31:53;46.30;;;41.90;;
66741;SDS011;53654;54.152;19.432;2024-02-16T06:34:21;45.40;;;41.10;;
66741;SDS011;53654;54.152;19.432;2024-02-16T06:36:49;45.80;;;41.40;;
66741;SDS011;53654;54.152;19.432;2024-02-16T06:39:18;45.40;;;41.10;;
66741;SDS011;53654;54.152;19.432;2024-02-16T06:41:46;43.60;;;39.60;;
66741;SDS011;53654;54.152;19.432;2024-02-16T06:44:15;44.20;;;40.10;;
66741;SDS011;53654;54.152;19.432;2024-02-16T06:46:48;44.50;;;40.40;;
66741;SDS011;53654;54.152;19.432;2024-02-16T06:49:16;44.20;;;40.00;;
66741;SDS011;53654;54.152;19.432;2024-02-16T06:51:44;46.00;;;41.50;;
66741;SDS011;53654;54.152;19.432;2024-02-16T06:54:13;45.40;;;41.10;;
66741;SDS011;53654;54.152;19.432;2024-02-16T06:56:42;44.60;;;40.30;;
66741;SDS011;53654;54.152;19.432;2024-02-16T06:59:12;43.10;;;38.90;;
66741;SDS011;53654;54.152;19.432;2024-02-16T07:01:40;43.60;;;39.40;;
66741;SDS011;53654;54.152;19.432;2024-02-16T07:04:08;43.40;;;39.20;;
66741;SDS011;53654;54.152;19.432;2024-02-16T07:06:37;41.70;;;37.90;;
66741;SDS011;53654;54.152;19.432;2024-02-16T07:09:06;40.10;;;36.50;;
66741;SDS011;53654;54.152;19.432;2024-02-16T07:11:35;39.60;;;36.00;;
66741;SDS011;53654;54.152;19.432;2024-02-16T07:14:04;40.40;;;36.50;;
66741;SDS011;53654;54.152;19.432;2024-02-16T07:16:34;39.10;;;35.70;;
66741;SDS011;53654;54.152;19.432;2024-02-16T07:19:02;39.70;;;36.10;;
66741;SDS011;53654;54.152;19.432;2024-02-16T07:21:31;40.30;;;36.60;;
66741;SDS011;53654;54.152;19.432;2024-02-16T07:23:59;40.50;;;36.60;;
66741;SDS011;53654;54.152;19.432;2024-02-16T07:26:28;39.10;;;35.50;;
66741;SDS011;53654;54.152;19.432;2024-02-16T07:28:57;38.70;;;35.10;;
66741;SDS011;53654;54.152;19.432;2024-02-16T07:31:25;39.60;;;35.90;;
66741;SDS011;53654;54.152;19.432;2024-02-16T07:33:53;38.60;;;35.00;;
66741;SDS011;53654;54.152;19.432;2024-02-16T07:36:22;38.80;;;35.10;;
66741;SDS011;53654;54.152;19.432;2024-02-16T07:38:50;38.40;;;35.00;;
66741;SDS011;53654;54.152;19.432;2024-02-16T07:41:19;37.60;;;34.10;;
66741;SDS011;53654;54.152;19.432;2024-02-16T07:43:47;37.90;;;34.30;;
66741;SDS011;53654;54.152;19.432;2024-02-16T07:46:15;39.40;;;35.80;;
66741;SDS011;53654;54.152;19.432;2024-02-16T07:48:44;38.50;;;35.10;;
66741;SDS011;53654;54.152;19.432;2024-02-16T07:51:12;38.60;;;35.00;;
66741;SDS011;53654;54.152;19.432;2024-02-16T07:53:41;39.40;;;35.60;;
66741;SDS011;53654;54.152;19.432;2024-02-16T07:56:12;39.00;;;35.30;;
66741;SDS011;53654;54.152;19.432;2024-02-16T07:58:41;39.60;;;35.90;;
66741;SDS011;53654;54.152;19.432;2024-02-16T08:01:12;38.20;;;34.70;;
66741;SDS011;53654;54.152;19.432;2024-02-16T08:03:43;37.30;;;33.80;;
66741;SDS011;53654;54.152;19.432;2024-02-16T08:06:11;36.50;;;33.10;;
66741;SDS011;53654;54.152;19.432;2024-02-16T08:08:40;37.20;;;33.70;;
66741;SDS011;53654;54.152;19.432;2024-02-16T08:11:08;37.90;;;34.20;;
66741;SDS011;53654;54.152;19.432;2024-02-16T08:13:37;37.20;;;33.70;;
66741;SDS011;53654;54.152;19.432;2024-02-16T08:16:05;36.70;;;33.50;;
66741;SDS011;53654;54.152;19.432;2024-02-16T08:18:34;35.50;;;32.30;;
66741;SDS011;53654;54.152;19.432;2024-02-16T08:21:03;37.00;;;33.60;;
66741;SDS011;53654;54.152;19.432;2024-02-16T08:23:32;36.20;;;32.90;;
66741;SDS011;53654;54.152;19.432;2024-02-16T08:26:00;36.90;;;33.40;;
66741;SDS011;53654;54.152;19.432;2024-02-16T08:28:28;36.20;;;33.00;;
66741;SDS011;53654;54.152;19.432;2024-02-16T08:30:57;35.40;;;32.30;;
66741;SDS011;53654;54.152;19.432;2024-02-16T08:33:25;33.80;;;30.70;;
66741;SDS011;53654;54.152;19.432;2024-02-16T08:35:53;33.20;;;30.30;;
66741;SDS011;53654;54.152;19.432;2024-02-16T08:38:22;34.70;;;31.40;;
66741;SDS011;53654;54.152;19.432;2024-02-16T08:40:50;32.40;;;29.40;;
66741;SDS011;53654;54.152;19.432;2024-02-16T08:43:19;32.50;;;29.50;;
66741;SDS011;53654;54.152;19.432;2024-02-16T08:45:48;33.00;;;30.10;;
66741;SDS011;53654;54.152;19.432;2024-02-16T08:48:16;31.50;;;28.80;;
66741;SDS011;53654;54.152;19.432;2024-02-16T08:50:45;32.30;;;29.50;;
66741;SDS011;53654;54.152;19.432;2024-02-16T08:53:13;30.10;;;27.50;;
66741;SDS011;53654;54.152;19.432;2024-02-16T08:55:42;30.90;;;28.00;;
66741;SDS011;53654;54.152;19.432;2024-02-16T08:58:10;31.60;;;28.70;;
66741;SDS011;53654;54.152;19.432;2024-02-16T09:00:38;29.50;;;26.90;;
66741;SDS011;53654;54.152;19.432;2024-02-16T09:03:07;29.60;;;26.80;;
66741;SDS011;53654;54.152;19.432;2024-02-16T09:05:37;30.20;;;27.50;;
66741;SDS011;53654;54.152;19.432;2024-02-16T09:08:05;29.90;;;27.30;;
66741;SDS011;53654;54.152;19.432;2024-02-16T09:10:34;30.00;;;27.30;;
66741;SDS011;53654;54.152;19.432;2024-02-16T09:13:05;30.40;;;27.50;;
66741;SDS011;53654;54.152;19.432;2024-02-16T09:15:33;29.70;;;26.90;;
66741;SDS011;53654;54.152;19.432;2024-02-16T09:18:01;29.50;;;26.90;;
66741;SDS011;53654;54.152;19.432;2024-02-16T09:20:31;29.60;;;26.90;;
66741;SDS011;53654;54.152;19.432;2024-02-16T09:22:59;28.50;;;26.00;;
66741;SDS011;53654;54.152;19.432;2024-02-16T09:25:28;28.70;;;26.20;;
66741;SDS011;53654;54.152;19.432;2024-02-16T09:27:56;27.70;;;25.20;;
66741;SDS011;53654;54.152;19.432;2024-02-16T09:30:24;27.70;;;25.20;;
66741;SDS011;53654;54.152;19.432;2024-02-16T09:32:53;29.80;;;27.10;;
66741;SDS011;53654;54.152;19.432;2024-02-16T09:35:21;26.80;;;24.30;;
66741;SDS011;53654;54.152;19.432;2024-02-16T09:37:50;26.10;;;23.70;;
66741;SDS011;53654;54.152;19.432;2024-02-16T09:40:18;25.50;;;23.20;;
66741;SDS011;53654;54.152;19.432;2024-02-16T09:42:48;27.30;;;24.70;;
66741;SDS011;53654;54.152;19.432;2024-02-16T09:45:19;25.70;;;23.40;;
66741;SDS011;53654;54.152;19.432;2024-02-16T09:47:48;26.30;;;23.80;;
66741;SDS011;53654;54.152;19.432;2024-02-16T09:50:30;26.30;;;24.00;;
66741;SDS011;53654;54.152;19.432;2024-02-16T09:52:58;26.50;;;24.10;;
66741;SDS011;53654;54.152;19.432;2024-02-16T09:55:29;27.20;;;24.60;;
66741;SDS011;53654;54.152;19.432;2024-02-16T09:58:00;27.10;;;24.60;;
66741;SDS011;53654;54.152;19.432;2024-02-16T10:00:29;27.20;;;24.90;;
66741;SDS011;53654;54.152;19.432;2024-02-16T10:02:57;27.50;;;25.00;;
66741;SDS011;53654;54.152;19.432;2024-02-16T10:05:26;27.50;;;25.00;;
66741;SDS011;53654;54.152;19.432;2024-02-16T10:07:55;28.30;;;25.80;;
66741;SDS011;53654;54.152;19.432;2024-02-16T10:10:24;28.10;;;25.50;;
66741;SDS011;53654;54.152;19.432;2024-02-16T10:13:28;28.20;;;25.70;;
66741;SDS011;53654;54.152;19.432;2024-02-16T10:15:48;28.40;;;25.80;;
66741;SDS011;53654;54.152;19.432;2024-02-16T10:18:16;29.40;;;26.70;;
66741;SDS011;53654;54.152;19.432;2024-02-16T10:20:48;29.50;;;26.70;;
66741;SDS011;53654;54.152;19.432;2024-02-16T10:23:16;28.60;;;26.00;;
66741;SDS011;53654;54.152;19.432;2024-02-16T10:25:44;28.30;;;25.80;;
66741;SDS011;53654;54.152;19.432;2024-02-16T10:28:12;28.30;;;25.70;;
66741;SDS011;53654;54.152;19.432;2024-02-16T10:30:42;28.60;;;26.00;;
66741;SDS011;53654;54.152;19.432;2024-02-16T10:33:11;28.10;;;25.60;;
66741;SDS011;53654;54.152;19.432;2024-02-16T10:35:42;27.30;;;24.90;;
66741;SDS011;53654;54.152;19.432;2024-02-16T10:38:12;28.10;;;25.40;;
66741;SDS011;53654;54.152;19.432;2024-02-16T10:40:41;28.60;;;25.90;;
66741;SDS011;53654;54.152;19.432;2024-02-16T10:43:10;27.10;;;24.60;;
66741;SDS011;53654;54.152;19.432;2024-02-16T10:45:41;27.10;;;24.50;;
66741;SDS011;53654;54.152;19.432;2024-02-16T10:48:09;27.30;;;24.80;;
66741;SDS011;53654;54.152;19.432;2024-02-16T10:50:38;27.20;;;24.80;;
66741;SDS011;53654;54.152;19.432;2024-02-16T10:55:47;25.80;;;23.60;;
66741;SDS011;53654;54.152;19.432;2024-02-16T10:58:19;27.30;;;24.80;;
66741;SDS011;53654;54.152;19.432;2024-02-16T11:00:52;26.60;;;24.10;;
66741;SDS011;53654;54.152;19.432;2024-02-16T11:03:22;25.60;;;23.30;;
66741;SDS011;53654;54.152;19.432;2024-02-16T11:05:53;25.20;;;23.00;;
66741;SDS011;53654;54.152;19.432;2024-02-16T11:08:25;26.20;;;23.90;;
66741;SDS011;53654;54.152;19.432;2024-02-16T11:13:25;25.10;;;22.80;;
66741;SDS011;53654;54.152;19.432;2024-02-16T11:16:01;25.70;;;23.30;;
66741;SDS011;53654;54.152;19.432;2024-02-16T11:18:32;25.10;;;22.90;;
66741;SDS011;53654;54.152;19.432;2024-02-16T11:21:05;24.90;;;22.70;;
66741;SDS011;53654;54.152;19.432;2024-02-16T11:23:37;24.70;;;22.50;;
66741;SDS011;53654;54.152;19.432;2024-02-16T11:26:05;24.70;;;22.30;;
66741;SDS011;53654;54.152;19.432;2024-02-16T11:28:42;23.70;;;21.50;;
66741;SDS011;53654;54.152;19.432;2024-02-16T11:31:11;23.80;;;21.60;;
66741;SDS011;53654;54.152;19.432;2024-02-16T11:33:43;23.70;;;21.40;;
66741;SDS011;53654;54.152;19.432;2024-02-16T11:36:13;24.10;;;21.90;;
66741;SDS011;53654;54.152;19.432;2024-02-16T11:38:41;22.70;;;20.70;;
66741;SDS011;53654;54.152;19.432;2024-02-16T11:41:10;22.00;;;20.00;;
66741;SDS011;53654;54.152;19.432;2024-02-16T11:43:38;21.20;;;19.40;;
66741;SDS011;53654;54.152;19.432;2024-02-16T11:46:13;20.90;;;19.00;;
66741;SDS011;53654;54.152;19.432;2024-02-16T11:48:42;20.50;;;18.70;;
66741;SDS011;53654;54.152;19.432;2024-02-16T11:51:14;21.10;;;19.20;;
66741;SDS011;53654;54.152;19.432;2024-02-16T11:53:54;19.40;;;17.70;;
66741;SDS011;53654;54.152;19.432;2024-02-16T11:56:24;19.50;;;17.70;;
66741;SDS011;53654;54.152;19.432;2024-02-16T11:58:53;19.30;;;17.50;;
66741;SDS011;53654;54.152;19.432;2024-02-16T12:01:22;19.10;;;17.30;;
66741;SDS011;53654;54.152;19.432;2024-02-16T12:03:51;18.70;;;17.00;;
66741;SDS011;53654;54.152;19.432;2024-02-16T12:06:20;18.60;;;16.90;;
66741;SDS011;53654;54.152;19.432;2024-02-16T12:08:51;17.90;;;16.30;;
66741;SDS011;53654;54.152;19.432;2024-02-16T12:11:23;18.70;;;17.00;;
66741;SDS011;53654;54.152;19.432;2024-02-16T12:13:51;18.40;;;16.70;;
66741;SDS011;53654;54.152;19.432;2024-02-16T12:16:20;20.10;;;18.10;;
66741;SDS011;53654;54.152;19.432;2024-02-16T12:18:48;18.50;;;16.60;;
66741;SDS011;53654;54.152;19.432;2024-02-16T12:21:17;18.10;;;16.40;;
66741;SDS011;53654;54.152;19.432;2024-02-16T12:23:47;18.50;;;16.80;;
66741;SDS011;53654;54.152;19.432;2024-02-16T12:26:16;18.90;;;17.20;;
66741;SDS011;53654;54.152;19.432;2024-02-16T12:28:44;18.00;;;16.20;;
66741;SDS011;53654;54.152;19.432;2024-02-16T12:31:17;18.10;;;16.40;;
66741;SDS011;53654;54.152;19.432;2024-02-16T12:33:47;17.50;;;15.90;;
66741;SDS011;53654;54.152;19.432;2024-02-16T12:36:16;17.90;;;16.20;;
66741;SDS011;53654;54.152;19.432;2024-02-16T12:38:45;17.20;;;15.70;;
66741;SDS011;53654;54.152;19.432;2024-02-16T12:41:13;17.80;;;16.20;;
66741;SDS011;53654;54.152;19.432;2024-02-16T12:43:45;17.80;;;16.20;;
66741;SDS011;53654;54.152;19.432;2024-02-16T12:46:13;18.20;;;16.40;;
66741;SDS011;53654;54.152;19.432;2024-02-16T12:48:41;17.80;;;16.00;;
66741;SDS011;53654;54.152;19.432;2024-02-16T12:51:12;17.80;;;16.10;;
66741;SDS011;53654;54.152;19.432;2024-02-16T12:53:41;16.50;;;15.00;;
66741;SDS011;53654;54.152;19.432;2024-02-16T12:56:10;17.00;;;15.40;;
66741;SDS011;53654;54.152;19.432;2024-02-16T12:58:38;16.70;;;15.20;;
66741;SDS011;53654;54.152;19.432;2024-02-16T13:01:07;17.40;;;15.80;;
66741;SDS011;53654;54.152;19.432;2024-02-16T13:03:50;17.70;;;15.90;;
66741;SDS011;53654;54.152;19.432;2024-02-16T13:06:18;16.40;;;14.80;;
66741;SDS011;53654;54.152;19.432;2024-02-16T13:08:51;16.40;;;14.90;;
66741;SDS011;53654;54.152;19.432;2024-02-16T13:11:21;16.70;;;15.10;;
66741;SDS011;53654;54.152;19.432;2024-02-16T13:13:49;15.90;;;14.40;;
66741;SDS011;53654;54.152;19.432;2024-02-16T13:16:19;16.40;;;14.80;;
66741;SDS011;53654;54.152;19.432;2024-02-16T13:18:49;16.20;;;14.70;;
66741;SDS011;53654;54.152;19.432;2024-02-16T13:21:17;16.40;;;14.90;;
66741;SDS011;53654;54.152;19.432;2024-02-16T13:23:46;16.20;;;14.80;;
66741;SDS011;53654;54.152;19.432;2024-02-16T13:26:14;15.50;;;14.00;;
66741;SDS011;53654;54.152;19.432;2024-02-16T13:28:42;15.90;;;14.40;;
66741;SDS011;53654;54.152;19.432;2024-02-16T13:31:11;16.90;;;15.50;;
66741;SDS011;53654;54.152;19.432;2024-02-16T13:33:39;15.50;;;14.10;;
66741;SDS011;53654;54.152;19.432;2024-02-16T13:36:08;15.70;;;14.30;;
66741;SDS011;53654;54.152;19.432;2024-02-16T13:38:37;15.50;;;14.10;;
66741;SDS011;53654;54.152;19.432;2024-02-16T13:41:06;16.20;;;14.70;;
66741;SDS011;53654;54.152;19.432;2024-02-16T13:43:34;15.30;;;13.90;;
66741;SDS011;53654;54.152;19.432;2024-02-16T13:46:03;15.10;;;13.70;;
66741;SDS011;53654;54.152;19.432;2024-02-16T13:48:31;15.40;;;14.10;;
66741;SDS011;53654;54.152;19.432;2024-02-16T13:51:00;15.90;;;14.30;;
66741;SDS011;53654;54.152;19.432;2024-02-16T13:53:29;16.00;;;14.50;;
66741;SDS011;53654;54.152;19.432;2024-02-16T13:56:00;16.10;;;14.60;;
66741;SDS011;53654;54.152;19.432;2024-02-16T13:58:32;15.90;;;14.40;;
66741;SDS011;53654;54.152;19.432;2024-02-16T14:01:02;16.00;;;14.50;;
66741;SDS011;53654;54.152;19.432;2024-02-16T14:03:32;15.70;;;14.20;;
66741;SDS011;53654;54.152;19.432;2024-02-16T14:06:02;15.90;;;14.50;;
66741;SDS011;53654;54.152;19.432;2024-02-16T14:08:31;17.10;;;15.50;;
66741;SDS011;53654;54.152;19.432;2024-02-16T14:10:59;16.20;;;14.70;;
66741;SDS011;53654;54.152;19.432;2024-02-16T14:13:27;16.10;;;14.60;;
66741;SDS011;53654;54.152;19.432;2024-02-16T14:15:56;15.50;;;14.00;;
66741;SDS011;53654;54.152;19.432;2024-02-16T14:18:25;15.10;;;13.80;;
66741;SDS011;53654;54.152;19.432;2024-02-16T14:21:02;15.90;;;14.40;;
66741;SDS011;53654;54.152;19.432;2024-02-16T14:23:31;15.90;;;14.40;;
66741;SDS011;53654;54.152;19.432;2024-02-16T14:26:00;16.20;;;14.80;;